createdAt,value
2023-02-14T00:01:40.880Z,98619.89
2023-02-14T00:04:09.644Z,98622.66
2023-02-14T00:06:39.235Z,98619.09
2023-02-14T00:09:18.823Z,98620.29
2023-02-14T00:11:47.029Z,98617.73
2023-02-14T00:14:35.449Z,98614.66
2023-02-14T00:17:04.754Z,98607.50
2023-02-14T00:19:34.912Z,98611.42
2023-02-14T00:22:04.375Z,98611.76
2023-02-14T00:24:32.400Z,98617.20
2023-02-14T00:27:00.838Z,98624.17
2023-02-14T00:29:31.776Z,98620.94
2023-02-14T00:32:00.624Z,98613.45
2023-02-14T00:34:29.268Z,98620.42
2023-02-14T00:36:57.440Z,98614.44
2023-02-14T00:39:25.497Z,98600.45
2023-02-14T00:41:53.539Z,98600.96
2023-02-14T00:44:21.834Z,98600.11
2023-02-14T00:46:49.869Z,98586.48
2023-02-14T00:49:18.138Z,98587.14
2023-02-14T00:51:46.607Z,98578.96
2023-02-14T00:54:14.812Z,98570.10
2023-02-14T00:56:42.862Z,98564.48
2023-02-14T00:59:10.950Z,98571.13
2023-02-14T01:01:39.398Z,98579.65
2023-02-14T01:04:08.134Z,98587.15
2023-02-14T01:06:36.722Z,98582.04
2023-02-14T01:09:04.892Z,98581.84
2023-02-14T01:11:35.120Z,98585.56
2023-02-14T01:14:03.509Z,98571.24
2023-02-14T01:16:31.628Z,98568.85
2023-02-14T01:19:01.101Z,98560.49
2023-02-14T01:21:31.833Z,98545.48
2023-02-14T01:24:06.762Z,98539.67
2023-02-14T01:26:36.171Z,98535.76
2023-02-14T01:29:05.270Z,98524.00
2023-02-14T01:31:35.575Z,98522.46
2023-02-14T01:34:04.845Z,98533.38
2023-02-14T01:36:38.083Z,98535.42
2023-02-14T01:39:10.559Z,98526.21
2023-02-14T01:41:41.491Z,98517.84
2023-02-14T01:44:15.926Z,98514.60
2023-02-14T01:46:45.544Z,98505.37
2023-02-14T01:49:26.309Z,98507.77
2023-02-14T01:52:05.437Z,98502.63
2023-02-14T01:54:38.429Z,98506.55
2023-02-14T01:57:10.069Z,98505.36
2023-02-14T01:59:43.695Z,98505.34
2023-02-14T02:02:12.220Z,98499.04
2023-02-14T02:04:45.571Z,98496.46
2023-02-14T02:07:21.102Z,98496.11
2023-02-14T02:10:00.755Z,98499.85
2023-02-14T02:12:30.771Z,98502.06
2023-02-14T02:15:01.420Z,98502.22
2023-02-14T02:17:35.116Z,98501.01
2023-02-14T02:20:14.342Z,98495.35
2023-02-14T02:23:04.011Z,98492.10
2023-02-14T02:25:38.141Z,98490.22
2023-02-14T02:28:09.506Z,98484.29
2023-02-14T02:30:51.245Z,98486.15
2023-02-14T02:33:49.126Z,98485.48
2023-02-14T02:36:42.172Z,98492.47
2023-02-14T02:39:22.418Z,98494.20
2023-02-14T02:42:04.948Z,98492.83
2023-02-14T02:44:45.278Z,98493.66
2023-02-14T02:47:22.568Z,98497.05
2023-02-14T02:50:13.834Z,98496.89
2023-02-14T02:53:15.310Z,98497.71
2023-02-14T02:56:15.426Z,98496.00
2023-02-14T02:58:46.471Z,98494.30
2023-02-14T03:01:20.999Z,98491.20
2023-02-14T03:04:14.663Z,98491.21
2023-02-14T03:06:45.331Z,98491.38
2023-02-14T03:09:33.517Z,98493.27
2023-02-14T03:12:17.699Z,98491.73
2023-02-14T03:14:57.405Z,98485.60
2023-02-14T03:17:30.801Z,98477.92
2023-02-14T03:20:18.418Z,98478.57
2023-02-14T03:22:57.485Z,98472.75
2023-02-14T03:25:34.737Z,98471.21
2023-02-14T03:28:31.050Z,98478.88
2023-02-14T03:31:45.053Z,98478.00
2023-02-14T03:34:19.186Z,98481.91
2023-02-14T03:36:59.646Z,98477.29
2023-02-14T03:40:06.817Z,98478.13
2023-02-14T03:42:50.645Z,98482.04
2023-02-14T03:45:27.808Z,98480.16
2023-02-14T03:48:00.826Z,98479.47
2023-02-14T03:50:31.707Z,98475.34
2023-02-14T03:53:01.605Z,98474.30
2023-02-14T03:55:49.352Z,98477.03
2023-02-14T03:58:24.665Z,98472.25
2023-02-14T04:01:06.646Z,98470.54
2023-02-14T04:03:39.406Z,98469.00
2023-02-14T04:06:08.526Z,98466.43
2023-02-14T04:08:36.708Z,98459.76
2023-02-14T04:11:05.926Z,98464.85
2023-02-14T04:13:37.258Z,98462.61
2023-02-14T04:16:06.761Z,98469.95
2023-02-14T04:18:53.591Z,98478.44
2023-02-14T04:21:21.522Z,98472.10
2023-02-14T04:23:49.850Z,98472.60
2023-02-14T04:26:18.003Z,98479.90
2023-02-14T04:28:45.966Z,98477.66
2023-02-14T04:31:14.215Z,98474.93
2023-02-14T04:33:42.338Z,98470.13
2023-02-14T04:36:10.371Z,98472.85
2023-02-14T04:38:38.492Z,98467.40
2023-02-14T04:41:06.771Z,98459.73
2023-02-14T04:43:35.055Z,98467.17
2023-02-14T04:46:03.231Z,98468.70
2023-02-14T04:48:31.349Z,98468.18
2023-02-14T04:50:59.710Z,98466.29
2023-02-14T04:53:28.083Z,98471.05
2023-02-14T04:55:56.456Z,98476.13
2023-02-14T04:58:24.629Z,98472.70
2023-02-14T05:00:52.665Z,98474.23
2023-02-14T05:03:20.886Z,98471.48
2023-02-14T05:05:49.063Z,98470.27
2023-02-14T05:08:18.125Z,98472.85
2023-02-14T05:10:46.238Z,98474.23
2023-02-14T05:13:14.648Z,98474.52
2023-02-14T05:15:45.278Z,98481.17
2023-02-14T05:18:13.268Z,98486.98
2023-02-14T05:20:41.422Z,98484.91
2023-02-14T05:23:13.836Z,98488.83
2023-02-14T05:25:42.575Z,98487.61
2023-02-14T05:28:11.063Z,98486.55
2023-02-14T05:30:39.559Z,98497.30
2023-02-14T05:33:07.708Z,98492.50
2023-02-14T05:35:35.903Z,98489.94
2023-02-14T05:38:04.850Z,98486.70
2023-02-14T05:40:33.796Z,98489.95
2023-02-14T05:43:01.976Z,98477.83
2023-02-14T05:45:30.080Z,98478.85
2023-02-14T05:47:58.347Z,98474.73
2023-02-14T05:50:26.615Z,98473.15
2023-02-14T05:52:56.130Z,98478.43
2023-02-14T05:55:25.537Z,98474.66
2023-02-14T05:57:53.630Z,98468.86
2023-02-14T06:00:23.958Z,98463.40
2023-02-14T06:02:52.010Z,98466.30
2023-02-14T06:05:21.317Z,98461.34
2023-02-14T06:07:52.669Z,98465.58
2023-02-14T06:10:23.408Z,98480.27
2023-02-14T06:12:54.048Z,98490.16
2023-02-14T06:15:22.624Z,98480.56
2023-02-14T06:17:52.882Z,98474.25
2023-02-14T06:20:22.052Z,98472.19
2023-02-14T06:22:50.572Z,98482.91
2023-02-14T06:25:19.010Z,98492.11
2023-02-14T06:27:49.273Z,98495.16
2023-02-14T06:30:18.707Z,98495.84
2023-02-14T06:32:46.836Z,98501.65
2023-02-14T06:35:15.525Z,98502.16
2023-02-14T06:37:45.453Z,98504.89
2023-02-14T06:40:14.459Z,98509.84
2023-02-14T06:42:42.620Z,98518.54
2023-02-14T06:45:11.114Z,98510.34
2023-02-14T06:47:39.189Z,98506.24
2023-02-14T06:50:08.390Z,98507.80
2023-02-14T06:52:36.463Z,98509.20
2023-02-14T06:55:05.155Z,98519.60
2023-02-14T06:57:33.133Z,98519.93
2023-02-14T07:00:01.098Z,98514.98
2023-02-14T07:02:29.216Z,98507.29
2023-02-14T07:04:57.875Z,98511.90
2023-02-14T07:07:26.143Z,98509.68
2023-02-14T07:09:54.430Z,98515.48
2023-02-14T07:12:22.404Z,98521.29
2023-02-14T07:14:50.324Z,98513.95
2023-02-14T07:17:18.468Z,98508.84
2023-02-14T07:19:46.525Z,98510.53
2023-02-14T07:22:14.763Z,98511.38
2023-02-14T07:24:42.947Z,98503.02
2023-02-14T07:27:10.964Z,98503.90
2023-02-14T07:29:39.039Z,98506.61
2023-02-14T07:32:07.460Z,98506.27
2023-02-14T07:34:35.638Z,98507.98
2023-02-14T07:37:03.677Z,98510.18
2023-02-14T07:39:32.068Z,98514.95
2023-02-14T07:42:00.349Z,98512.22
2023-02-14T07:44:28.420Z,98512.55
2023-02-14T07:46:56.804Z,98502.11
2023-02-14T07:49:24.865Z,98504.67
2023-02-14T07:51:52.959Z,98508.11
2023-02-14T07:54:21.331Z,98508.63
2023-02-14T07:56:49.785Z,98513.40
2023-02-14T07:59:17.994Z,98515.94
2023-02-14T08:01:46.104Z,98515.23
2023-02-14T08:04:14.555Z,98512.98
2023-02-14T08:06:43.445Z,98505.13
2023-02-14T08:09:11.842Z,98502.73
2023-02-14T08:11:58.952Z,98505.11
2023-02-14T08:14:27.023Z,98500.80
2023-02-14T08:16:55.023Z,98499.27
2023-02-14T08:19:23.073Z,98499.09
2023-02-14T08:21:51.134Z,98494.14
2023-02-14T08:24:19.117Z,98500.80
2023-02-14T08:26:47.228Z,98502.86
2023-02-14T08:29:16.873Z,98502.17
2023-02-14T08:31:45.885Z,98503.88
2023-02-14T08:34:15.015Z,98506.26
2023-02-14T08:36:43.499Z,98507.44
2023-02-14T08:39:11.879Z,98498.19
2023-02-14T08:41:39.948Z,98495.23
2023-02-14T08:44:07.881Z,98499.84
2023-02-14T08:46:36.273Z,98500.66
2023-02-14T08:49:04.740Z,98506.09
2023-02-14T08:51:32.868Z,98504.73
2023-02-14T08:54:01.149Z,98504.39
2023-02-14T08:56:29.134Z,98511.71
2023-02-14T08:58:57.325Z,98510.50
2023-02-14T09:01:25.446Z,98512.02
2023-02-14T09:03:53.804Z,98513.69
2023-02-14T09:06:21.823Z,98517.59
2023-02-14T09:08:50.780Z,98522.70
2023-02-14T09:11:22.630Z,98523.52
2023-02-14T09:13:55.516Z,98524.70
2023-02-14T09:16:25.013Z,98529.81
2023-02-14T09:18:54.781Z,98536.63
2023-02-14T09:21:26.685Z,98540.16
2023-02-14T09:23:55.079Z,98537.41
2023-02-14T09:26:23.070Z,98540.98
2023-02-14T09:28:51.190Z,98540.80
2023-02-14T09:31:21.740Z,98550.35
2023-02-14T09:33:51.142Z,98552.20
2023-02-14T09:36:19.219Z,98550.98
2023-02-14T09:38:47.916Z,98546.88
2023-02-14T09:41:48.127Z,98540.55
2023-02-14T09:44:56.548Z,98538.98
2023-02-14T09:47:43.122Z,98537.92
2023-02-14T09:50:24.052Z,98537.05
2023-02-14T09:52:57.383Z,98540.29
2023-02-14T09:55:32.316Z,98536.80
2023-02-14T09:58:00.401Z,98528.95
2023-02-14T10:00:37.968Z,98532.19
2023-02-14T10:03:42.060Z,98528.75
2023-02-14T10:06:27.356Z,98529.57
2023-02-14T10:09:01.323Z,98526.14
2023-02-14T10:11:30.259Z,98529.52
2023-02-14T10:14:01.929Z,98525.23
2023-02-14T10:16:39.296Z,98519.40
2023-02-14T10:19:14.139Z,98520.23
2023-02-14T10:21:48.074Z,98516.48
2023-02-14T10:24:38.290Z,98516.45
2023-02-14T10:27:32.908Z,98519.14
2023-02-14T10:30:03.110Z,98524.54
2023-02-14T10:33:13.782Z,98522.30
2023-02-14T10:35:48.950Z,98521.44
2023-02-14T10:38:44.030Z,98515.58
2023-02-14T10:41:49.346Z,98512.14
2023-02-14T10:44:26.364Z,98509.22
2023-02-14T10:46:57.885Z,98505.08
2023-02-14T10:49:36.388Z,98498.73
2023-02-14T10:52:38.132Z,98495.27
2023-02-14T10:55:30.033Z,98487.17
2023-02-14T10:58:04.990Z,98486.98
2023-02-14T11:00:37.567Z,98487.64
2023-02-14T11:03:08.610Z,98481.08
2023-02-14T11:05:45.047Z,98482.24
2023-02-14T11:08:22.571Z,98484.23
2023-02-14T11:10:51.684Z,98473.78
2023-02-14T11:13:39.429Z,98464.53
2023-02-14T11:16:12.078Z,98463.11
2023-02-14T11:18:41.472Z,98458.28
2023-02-14T11:21:24.495Z,98455.67
2023-02-14T11:23:52.779Z,98452.71
2023-02-14T11:26:25.239Z,98449.09
2023-02-14T11:29:01.342Z,98449.25
2023-02-14T11:31:34.918Z,98451.59
2023-02-14T11:34:23.040Z,98444.05
2023-02-14T11:36:51.546Z,98446.92
2023-02-14T11:39:32.584Z,98446.69
2023-02-14T11:42:05.848Z,98447.86
2023-02-14T11:44:37.044Z,98445.43
2023-02-14T11:47:28.356Z,98435.98
2023-02-14T11:49:57.973Z,98427.70
2023-02-14T11:52:29.786Z,98417.77
2023-02-14T11:54:58.908Z,98425.39
2023-02-14T11:57:35.281Z,98423.66
2023-02-14T12:00:16.076Z,98424.33
2023-02-14T12:02:50.026Z,98417.93
2023-02-14T12:05:47.709Z,98420.28
2023-02-14T12:08:23.669Z,98414.04
2023-02-14T12:11:22.670Z,98409.88
2023-02-14T12:13:55.448Z,98415.12
2023-02-14T12:16:35.497Z,98417.33
2023-02-14T12:19:10.940Z,98415.59
2023-02-14T12:22:03.001Z,98403.73
2023-02-14T12:24:48.952Z,98403.53
2023-02-14T12:28:04.105Z,98408.79
2023-02-14T12:30:35.249Z,98403.29
2023-02-14T12:33:06.077Z,98403.95
2023-02-14T12:35:34.053Z,98395.21
2023-02-14T12:38:29.338Z,98399.29
2023-02-14T12:41:21.880Z,98395.50
2023-02-14T12:43:53.862Z,98388.13
2023-02-14T12:46:35.634Z,98387.39
2023-02-14T12:49:03.818Z,98400.35
2023-02-14T12:51:50.622Z,98401.81
2023-02-14T12:54:52.674Z,98396.61
2023-02-14T12:57:23.605Z,98399.33
2023-02-14T13:00:04.785Z,98402.86
2023-02-14T13:02:46.107Z,98402.48
2023-02-14T13:05:41.565Z,98401.93
2023-02-14T13:08:35.032Z,98400.68
2023-02-14T13:11:21.002Z,98402.02
2023-02-14T13:14:04.731Z,98403.20
2023-02-14T13:16:41.922Z,98407.98
2023-02-14T13:19:44.178Z,98409.96
2023-02-14T13:22:18.191Z,98406.98
2023-02-14T13:24:50.688Z,98415.69
2023-02-14T13:27:23.352Z,98419.73
2023-02-14T13:29:59.744Z,98427.05
2023-02-14T13:32:33.418Z,98428.36
2023-02-14T13:35:02.315Z,98432.11
2023-02-14T13:37:31.700Z,98432.97
2023-02-14T13:40:05.329Z,98430.73
2023-02-14T13:42:49.047Z,98428.81
2023-02-14T13:45:51.743Z,98421.58
2023-02-14T13:48:23.083Z,98419.15
2023-02-14T13:51:06.192Z,98429.93
2023-02-14T13:53:46.776Z,98423.38
2023-02-14T13:56:17.789Z,98421.30
2023-02-14T13:58:48.835Z,98421.31
2023-02-14T14:01:29.298Z,98420.27
2023-02-14T14:04:03.950Z,98413.23
2023-02-14T14:07:12.207Z,98417.53
2023-02-14T14:09:43.312Z,98416.00
2023-02-14T14:12:26.298Z,98420.14
2023-02-14T14:15:06.828Z,98420.12
2023-02-14T14:17:42.919Z,98416.31
2023-02-14T14:20:16.824Z,98412.16
2023-02-14T14:22:56.919Z,98408.05
2023-02-14T14:25:38.337Z,98401.20
2023-02-14T14:28:19.620Z,98402.59
2023-02-14T14:30:48.698Z,98405.22
2023-02-14T14:33:32.445Z,98407.11
2023-02-14T14:36:21.409Z,98405.57
2023-02-14T14:38:52.434Z,98404.20
2023-02-14T14:41:28.930Z,98402.13
2023-02-14T14:43:59.822Z,98401.09
2023-02-14T14:46:28.026Z,98397.82
2023-02-14T14:48:57.244Z,98396.92
2023-02-14T14:51:32.385Z,98397.59
2023-02-14T14:54:07.205Z,98393.18
2023-02-14T14:56:39.884Z,98394.61
2023-02-14T14:59:17.375Z,98397.36
2023-02-14T15:01:46.579Z,98393.25
2023-02-14T15:04:14.602Z,98395.84
2023-02-14T15:06:42.940Z,98393.94
2023-02-14T15:09:16.749Z,98394.61
2023-02-14T15:12:05.495Z,98397.89
2023-02-14T15:14:42.629Z,98397.04
2023-02-14T15:17:32.905Z,98397.23
2023-02-14T15:20:08.608Z,98402.89
2023-02-14T15:22:46.220Z,98404.63
2023-02-14T15:25:21.388Z,98407.36
2023-02-14T15:27:50.487Z,98409.46
2023-02-14T15:30:34.406Z,98405.23
2023-02-14T15:33:04.838Z,98406.09
2023-02-14T15:35:35.448Z,98403.34
2023-02-14T15:38:07.072Z,98411.02
2023-02-14T15:40:36.021Z,98408.80
2023-02-14T15:43:22.191Z,98413.94
2023-02-14T15:45:52.869Z,98412.75
2023-02-14T15:48:23.863Z,98417.23
2023-02-14T15:50:56.006Z,98421.72
2023-02-14T15:53:44.686Z,98427.73
2023-02-14T15:56:24.905Z,98429.45
2023-02-14T15:59:00.530Z,98428.64
2023-02-14T16:01:30.441Z,98430.89
2023-02-14T16:04:02.566Z,98437.73
2023-02-14T16:06:50.202Z,98441.64
2023-02-14T16:09:29.825Z,98442.81
2023-02-14T16:11:57.779Z,98443.67
2023-02-14T16:14:35.489Z,98445.25
2023-02-14T16:17:14.418Z,98444.57
2023-02-14T16:19:45.678Z,98452.98
2023-02-14T16:22:34.797Z,98457.44
2023-02-14T16:25:02.796Z,98460.33
2023-02-14T16:27:30.970Z,98460.31
2023-02-14T16:29:59.314Z,98455.54
2023-02-14T16:32:27.748Z,98460.73
2023-02-14T16:34:55.813Z,98461.44
2023-02-14T16:37:29.217Z,98459.41
2023-02-14T16:40:00.149Z,98463.86
2023-02-14T16:42:28.429Z,98461.48
2023-02-14T16:44:58.044Z,98464.58
2023-02-14T16:47:27.980Z,98465.95
2023-02-14T16:49:56.248Z,98469.39
2023-02-14T16:52:28.828Z,98471.83
2023-02-14T16:54:57.323Z,98474.73
2023-02-14T16:57:30.686Z,98477.70
2023-02-14T16:59:58.802Z,98481.30
2023-02-14T17:02:28.670Z,98478.04
2023-02-14T17:04:57.312Z,98474.96
2023-02-14T17:07:29.474Z,98470.69
2023-02-14T17:10:03.529Z,98473.23
2023-02-14T17:12:38.064Z,98472.73
2023-02-14T17:15:13.027Z,98476.83
2023-02-14T17:17:42.019Z,98482.30
2023-02-14T17:20:11.110Z,98483.48
2023-02-14T17:22:42.629Z,98488.80
2023-02-14T17:25:11.375Z,98491.20
2023-02-14T17:27:43.965Z,98490.85
2023-02-14T17:30:13.740Z,98494.62
2023-02-14T17:32:42.909Z,98493.25
2023-02-14T17:35:12.095Z,98492.91
2023-02-14T17:37:40.359Z,98493.08
2023-02-14T17:40:09.993Z,98492.91
2023-02-14T17:42:38.957Z,98490.50
2023-02-14T17:45:08.549Z,98485.19
2023-02-14T17:47:36.658Z,98489.13
2023-02-14T17:50:05.444Z,98495.14
2023-02-14T17:52:33.618Z,98499.09
2023-02-14T17:55:01.697Z,98496.36
2023-02-14T17:57:29.878Z,98497.20
2023-02-14T17:59:58.766Z,98494.45
2023-02-14T18:02:27.246Z,98492.41
2023-02-14T18:04:55.303Z,98492.59
2023-02-14T18:07:24.030Z,98482.84
2023-02-14T18:09:52.384Z,98481.83
2023-02-14T18:12:21.103Z,98472.23
2023-02-14T18:14:49.405Z,98470.20
2023-02-14T18:17:17.667Z,98475.15
2023-02-14T18:19:46.871Z,98479.59
2023-02-14T18:22:15.044Z,98482.48
2023-02-14T18:24:43.234Z,98479.59
2023-02-14T18:27:11.293Z,98483.69
2023-02-14T18:29:39.683Z,98481.63
2023-02-14T18:32:07.804Z,98480.05
2023-02-14T18:34:38.246Z,98476.47
2023-02-14T18:37:07.305Z,98475.60
2023-02-14T18:39:35.268Z,98474.39
2023-02-14T18:42:04.668Z,98475.59
2023-02-14T18:44:33.675Z,98473.89
2023-02-14T18:47:02.845Z,98475.25
2023-02-14T18:49:31.247Z,98474.91
2023-02-14T18:52:00.446Z,98469.05
2023-02-14T18:54:28.437Z,98468.88
2023-02-14T18:56:56.493Z,98468.89
2023-02-14T18:59:25.298Z,98464.44
2023-02-14T19:01:53.374Z,98466.48
2023-02-14T19:04:21.733Z,98468.86
2023-02-14T19:06:49.844Z,98471.42
2023-02-14T19:09:18.831Z,98472.47
2023-02-14T19:11:47.026Z,98479.98
2023-02-14T19:14:15.389Z,98485.29
2023-02-14T19:16:51.165Z,98480.66
2023-02-14T19:19:20.082Z,98480.84
2023-02-14T19:21:48.593Z,98476.55
2023-02-14T19:24:18.649Z,98477.59
2023-02-14T19:26:47.346Z,98481.52
2023-02-14T19:29:18.097Z,98487.02
2023-02-14T19:31:49.955Z,98489.91
2023-02-14T19:34:21.026Z,98488.20
2023-02-14T19:36:51.761Z,98484.61
2023-02-14T19:39:21.418Z,98493.67
2023-02-14T19:41:49.917Z,98491.96
2023-02-14T19:44:18.805Z,98495.21
2023-02-14T19:46:47.786Z,98498.64
2023-02-14T19:49:19.306Z,98497.81
2023-02-14T19:51:49.005Z,98494.86
2023-02-14T19:54:17.360Z,98487.48
2023-02-14T19:56:46.982Z,98489.02
2023-02-14T19:59:20.218Z,98489.36
2023-02-14T20:01:54.849Z,98488.70
2023-02-14T20:04:25.926Z,98495.54
2023-02-14T20:06:54.648Z,98496.23
2023-02-14T20:09:23.709Z,98502.77
2023-02-14T20:11:56.925Z,98506.73
2023-02-14T20:14:35.960Z,98507.62
2023-02-14T20:17:08.942Z,98506.41
2023-02-14T20:19:38.005Z,98503.30
2023-02-14T20:22:08.291Z,98502.77
2023-02-14T20:24:36.518Z,98501.38
2023-02-14T20:27:05.231Z,98504.83
2023-02-14T20:29:33.299Z,98500.23
2023-02-14T20:32:03.761Z,98506.03
2023-02-14T20:34:32.012Z,98501.91
2023-02-14T20:37:00.497Z,98501.23
2023-02-14T20:39:31.626Z,98501.73
2023-02-14T20:42:01.258Z,98499.84
2023-02-14T20:44:29.948Z,98501.37
2023-02-14T20:46:58.255Z,98503.27
2023-02-14T20:49:28.270Z,98503.08
2023-02-14T20:51:56.959Z,98502.23
2023-02-14T20:54:27.524Z,98503.46
2023-02-14T20:56:56.068Z,98501.93
2023-02-14T20:59:27.175Z,98503.45
2023-02-14T21:01:57.155Z,98496.26
2023-02-14T21:04:26.044Z,98493.52
2023-02-14T21:06:54.621Z,98493.05
2023-02-14T21:09:22.689Z,98486.91
2023-02-14T21:11:53.421Z,98486.40
2023-02-14T21:14:21.458Z,98480.93
2023-02-14T21:16:49.773Z,98477.87
2023-02-14T21:19:18.284Z,98481.52
2023-02-14T21:21:46.337Z,98484.28
2023-02-14T21:24:16.002Z,98482.93
2023-02-14T21:26:44.857Z,98484.31
2023-02-14T21:29:12.933Z,98489.60
2023-02-14T21:31:42.481Z,98487.88
2023-02-14T21:34:11.130Z,98495.41
2023-02-14T21:36:39.199Z,98498.16
2023-02-14T21:39:07.790Z,98496.64
2023-02-14T21:41:36.792Z,98495.45
2023-02-14T21:44:06.375Z,98496.15
2023-02-14T21:46:38.684Z,98491.70
2023-02-14T21:49:25.697Z,98492.73
2023-02-14T21:51:53.890Z,98490.54
2023-02-14T21:54:22.157Z,98487.83
2023-02-14T21:56:50.122Z,98493.13
2023-02-14T21:59:18.390Z,98491.23
2023-02-14T22:01:46.583Z,98487.92
2023-02-14T22:04:15.067Z,98485.36
2023-02-14T22:06:43.956Z,98482.83
2023-02-14T22:09:14.022Z,98487.56
2023-02-14T22:11:42.569Z,98487.11
2023-02-14T22:14:11.216Z,98485.63
2023-02-14T22:16:39.943Z,98484.46
2023-02-14T22:19:12.722Z,98486.21
2023-02-14T22:21:41.835Z,98485.41
2023-02-14T22:24:09.868Z,98489.92
2023-02-14T22:26:43.714Z,98487.11
2023-02-14T22:29:12.827Z,98485.02
2023-02-14T22:31:43.566Z,98487.38
2023-02-14T22:34:14.573Z,98487.36
2023-02-14T22:36:42.611Z,98488.58
2023-02-14T22:39:14.056Z,98484.13
2023-02-14T22:41:42.534Z,98489.44
2023-02-14T22:44:10.799Z,98489.44
2023-02-14T22:46:38.919Z,98495.10
2023-02-14T22:49:08.072Z,98490.33
2023-02-14T22:51:43.596Z,98493.44
2023-02-14T22:54:15.194Z,98491.77
2023-02-14T22:56:45.696Z,98499.33
2023-02-14T22:59:21.164Z,98496.83
2023-02-14T23:01:51.198Z,98499.23
2023-02-14T23:04:25.062Z,98495.33
2023-02-14T23:06:54.069Z,98494.35
2023-02-14T23:09:23.553Z,98495.09
2023-02-14T23:11:52.175Z,98493.92
2023-02-14T23:14:39.889Z,98494.80
2023-02-14T23:17:25.986Z,98497.06
2023-02-14T23:20:12.752Z,98496.92
2023-02-14T23:22:41.369Z,98495.94
2023-02-14T23:25:12.354Z,98494.60
2023-02-14T23:27:47.235Z,98495.98
2023-02-14T23:30:17.813Z,98496.19
2023-02-14T23:32:45.851Z,98496.19
2023-02-14T23:35:14.123Z,98493.11
2023-02-14T23:37:42.188Z,98486.80
2023-02-14T23:40:10.696Z,98490.41
2023-02-14T23:42:39.180Z,98490.94
2023-02-14T23:45:26.632Z,98500.70
2023-02-14T23:47:54.733Z,98496.77
2023-02-14T23:50:22.860Z,98503.27
2023-02-14T23:52:51.246Z,98504.83
2023-02-14T23:55:19.517Z,98500.52
2023-02-14T23:57:47.638Z,98500.00
